createdAt,value
2022-09-02T00:01:32.996Z,24.70
2022-09-02T00:04:03.555Z,24.70
2022-09-02T00:06:31.591Z,24.70
2022-09-02T00:08:59.402Z,24.80
2022-09-02T00:11:29.638Z,24.80
2022-09-02T00:13:57.260Z,24.90
2022-09-02T00:16:25.621Z,24.90
2022-09-02T00:18:54.074Z,25.00
2022-09-02T00:21:21.652Z,25.50
2022-09-02T00:23:49.306Z,25.00
2022-09-02T00:26:16.980Z,25.10
2022-09-02T00:28:50.985Z,25.30
2022-09-02T00:31:18.098Z,25.30
2022-09-02T00:33:45.079Z,25.40
2022-09-02T00:36:12.548Z,25.40
2022-09-02T00:38:40.138Z,25.40
2022-09-02T00:41:10.579Z,25.50
2022-09-02T00:43:51.003Z,25.60
2022-09-02T00:46:22.251Z,25.80
2022-09-02T00:49:04.241Z,25.90
2022-09-02T00:51:40.778Z,25.90
2022-09-02T00:54:08.347Z,25.90
2022-09-02T00:56:38.733Z,26.10
2022-09-02T00:59:06.982Z,26.10
2022-09-02T01:01:33.985Z,26.20
2022-09-02T01:04:00.902Z,26.40
2022-09-02T01:06:32.796Z,26.40
2022-09-02T01:09:08.413Z,26.50
2022-09-02T01:11:43.786Z,26.60
2022-09-02T01:14:13.678Z,26.70
2022-09-02T01:16:45.444Z,26.60
2022-09-02T01:19:34.990Z,26.70
2022-09-02T01:22:01.858Z,26.80
2022-09-02T01:24:31.530Z,26.80
2022-09-02T01:26:59.405Z,26.90
2022-09-02T01:29:28.026Z,27.20
2022-09-02T01:31:55.734Z,27.20
2022-09-02T01:34:23.917Z,27.30
2022-09-02T01:36:51.058Z,27.40
2022-09-02T01:39:18.015Z,27.40
2022-09-02T01:41:45.116Z,27.40
2022-09-02T01:44:12.374Z,27.60
2022-09-02T01:46:39.381Z,27.80
2022-09-02T01:49:06.421Z,27.90
2022-09-02T01:51:33.404Z,27.90
2022-09-02T01:54:00.251Z,27.90
2022-09-02T01:56:27.123Z,28.00
2022-09-02T01:58:54.308Z,28.10
2022-09-02T02:01:21.323Z,28.20
2022-09-02T02:03:48.247Z,28.20
2022-09-02T02:06:17.809Z,28.30
2022-09-02T02:08:45.190Z,28.30
2022-09-02T02:11:12.528Z,28.40
2022-09-02T02:13:39.368Z,28.40
2022-09-02T02:16:06.587Z,28.40
2022-09-02T02:18:33.488Z,28.60
2022-09-02T02:21:00.507Z,28.50
2022-09-02T02:23:27.389Z,28.60
2022-09-02T02:25:54.550Z,28.60
2022-09-02T02:28:21.495Z,28.60
2022-09-02T02:30:48.443Z,28.60
2022-09-02T02:33:15.751Z,28.70
2022-09-02T02:35:43.368Z,28.70
2022-09-02T02:38:10.267Z,28.70
2022-09-02T02:40:41.274Z,28.90
2022-09-02T02:43:08.075Z,29.00
2022-09-02T02:45:34.885Z,29.10
2022-09-02T02:48:02.554Z,29.20
2022-09-02T02:50:29.275Z,29.30
2022-09-02T02:52:56.405Z,29.60
2022-09-02T02:55:24.953Z,29.40
2022-09-02T02:57:52.206Z,29.30
2022-09-02T03:00:24.607Z,29.50
2022-09-02T03:02:56.059Z,29.70
2022-09-02T03:05:23.007Z,29.70
2022-09-02T03:07:49.777Z,29.50
2022-09-02T03:10:16.970Z,29.30
2022-09-02T03:12:47.591Z,29.60
2022-09-02T03:15:17.168Z,29.70
2022-09-02T03:17:47.741Z,29.80
2022-09-02T03:20:16.253Z,29.70
2022-09-02T03:22:45.966Z,30.00
2022-09-02T03:25:16.714Z,30.20
2022-09-02T03:27:46.056Z,30.00
2022-09-02T03:30:16.567Z,30.20
2022-09-02T03:32:43.314Z,30.90
2022-09-02T03:35:13.706Z,30.40
2022-09-02T03:37:40.873Z,30.80
2022-09-02T03:40:12.318Z,30.90
2022-09-02T03:42:39.582Z,30.90
2022-09-02T03:45:08.733Z,31.20
2022-09-02T03:47:36.866Z,31.40
2022-09-02T03:50:05.218Z,31.20
2022-09-02T03:52:31.976Z,30.80
2022-09-02T03:54:58.799Z,31.20
2022-09-02T03:57:27.141Z,31.30
2022-09-02T03:59:54.158Z,31.10
2022-09-02T04:02:20.935Z,30.90
2022-09-02T04:04:47.758Z,31.10
2022-09-02T04:07:14.721Z,30.90
2022-09-02T04:09:46.432Z,31.00
2022-09-02T04:12:13.574Z,31.20
2022-09-02T04:14:42.050Z,31.40
2022-09-02T04:17:08.928Z,31.30
2022-09-02T04:19:37.547Z,31.50
2022-09-02T04:22:04.316Z,31.60
2022-09-02T04:24:31.171Z,31.50
2022-09-02T04:27:03.351Z,31.30
2022-09-02T04:29:31.950Z,31.50
2022-09-02T04:31:58.692Z,31.40
2022-09-02T04:34:25.426Z,31.20
2022-09-02T04:36:52.910Z,31.10
2022-09-02T04:39:19.873Z,31.70
2022-09-02T04:41:46.693Z,31.30
2022-09-02T04:44:13.406Z,31.10
2022-09-02T04:46:40.445Z,31.40
2022-09-02T04:49:07.634Z,31.70
2022-09-02T04:51:34.604Z,31.70
2022-09-02T04:54:02.044Z,32.10
2022-09-02T04:56:31.007Z,32.20
2022-09-02T04:58:58.019Z,32.40
2022-09-02T05:01:28.461Z,32.30
2022-09-02T05:03:55.286Z,31.70
2022-09-02T05:06:26.995Z,32.00
2022-09-02T05:08:54.790Z,32.00
2022-09-02T05:11:28.498Z,32.10
2022-09-02T05:13:57.827Z,32.10
2022-09-02T05:16:30.856Z,32.10
2022-09-02T05:18:58.090Z,32.00
2022-09-02T05:21:24.920Z,32.20
2022-09-02T05:23:54.586Z,32.40
2022-09-02T05:26:22.680Z,32.40
2022-09-02T05:28:50.503Z,32.50
2022-09-02T05:31:19.825Z,32.40
2022-09-02T05:33:46.610Z,32.10
2022-09-02T05:36:20.423Z,32.30
2022-09-02T05:38:47.525Z,32.20
2022-09-02T05:41:23.257Z,32.40
2022-09-02T05:43:55.922Z,32.30
2022-09-02T05:46:24.475Z,32.10
2022-09-02T05:49:12.169Z,32.20
2022-09-02T05:51:41.893Z,32.00
2022-09-02T05:54:19.600Z,31.90
2022-09-02T05:56:48.839Z,31.90
2022-09-02T05:59:16.206Z,32.20
2022-09-02T06:01:43.307Z,32.10
2022-09-02T06:04:10.194Z,32.30
2022-09-02T06:06:38.764Z,32.30
2022-09-02T06:09:10.514Z,31.90
2022-09-02T06:11:40.060Z,32.20
2022-09-02T06:14:08.053Z,32.00
2022-09-02T06:16:36.360Z,31.60
2022-09-02T06:19:06.065Z,31.30
2022-09-02T06:21:33.668Z,31.30
2022-09-02T06:24:00.671Z,31.40
2022-09-02T06:26:27.703Z,31.00
2022-09-02T06:28:54.618Z,31.20
2022-09-02T06:31:23.149Z,31.10
2022-09-02T06:33:54.158Z,31.00
2022-09-02T06:36:22.521Z,30.80
2022-09-02T06:38:56.487Z,30.70
2022-09-02T06:41:28.240Z,30.90
2022-09-02T06:44:00.758Z,31.60
2022-09-02T06:46:32.125Z,30.40
2022-09-02T06:48:59.666Z,30.30
2022-09-02T06:51:32.640Z,30.40
2022-09-02T06:54:00.734Z,30.00
2022-09-02T06:56:28.331Z,30.00
2022-09-02T06:58:56.058Z,30.00
2022-09-02T07:01:29.340Z,30.10
2022-09-02T07:04:15.312Z,30.10
2022-09-02T07:06:45.883Z,30.50
2022-09-02T07:09:16.314Z,30.80
2022-09-02T07:11:44.140Z,31.10
2022-09-02T07:14:10.905Z,31.60
2022-09-02T07:16:42.935Z,31.20
2022-09-02T07:19:14.052Z,31.40
2022-09-02T07:21:42.405Z,31.20
2022-09-02T07:24:11.411Z,31.60
2022-09-02T07:26:39.275Z,31.40
2022-09-02T07:29:08.772Z,31.80
2022-09-02T07:31:42.622Z,31.80
2022-09-02T07:34:10.045Z,31.70
2022-09-02T07:36:37.012Z,31.70
2022-09-02T07:39:06.540Z,31.60
2022-09-02T07:41:33.591Z,31.50
2022-09-02T07:44:00.583Z,31.60
2022-09-02T07:46:30.068Z,32.00
2022-09-02T07:48:57.542Z,31.50
2022-09-02T07:51:24.505Z,31.30
2022-09-02T07:53:57.776Z,31.30
2022-09-02T07:56:24.597Z,31.30
2022-09-02T07:58:51.444Z,30.90
2022-09-02T08:01:23.163Z,30.80
2022-09-02T08:03:50.949Z,31.80
2022-09-02T08:06:33.680Z,31.10
2022-09-02T08:09:01.889Z,30.90
2022-09-02T08:11:29.204Z,30.70
2022-09-02T08:13:56.066Z,30.70
2022-09-02T08:16:22.882Z,30.50
2022-09-02T08:18:49.748Z,30.00
2022-09-02T08:21:16.579Z,30.00
2022-09-02T08:23:43.636Z,29.90
2022-09-02T08:26:11.208Z,29.80
2022-09-02T08:28:38.523Z,30.00
2022-09-02T08:31:07.169Z,29.80
2022-09-02T08:33:34.650Z,29.70
2022-09-02T08:36:11.981Z,29.70
2022-09-02T08:38:38.738Z,29.60
2022-09-02T08:41:21.845Z,29.30
2022-09-02T08:43:51.447Z,29.30
2022-09-02T08:46:21.480Z,29.10
2022-09-02T08:49:00.208Z,28.50
2022-09-02T08:51:52.752Z,28.30
2022-09-02T08:54:45.615Z,28.10
2022-09-02T08:57:12.926Z,27.90
2022-09-02T09:02:17.937Z,27.20
2022-09-02T09:05:16.849Z,27.20
2022-09-02T09:07:52.740Z,26.80
2022-09-02T09:10:33.431Z,26.80
2022-09-02T09:13:20.369Z,26.60
2022-09-02T09:15:52.783Z,25.70
2022-09-02T09:18:24.197Z,25.50
2022-09-02T09:20:51.123Z,25.30
2022-09-02T09:23:36.175Z,25.40
2022-09-02T09:26:13.457Z,25.20
2022-09-02T09:28:43.557Z,25.20
2022-09-02T09:31:20.664Z,24.80
2022-09-02T09:34:08.925Z,24.50
2022-09-02T09:36:42.206Z,23.90
2022-09-02T09:39:41.103Z,23.90
2022-09-02T09:42:14.519Z,24.20
2022-09-02T09:44:45.473Z,24.40
2022-09-02T09:47:25.575Z,24.10
2022-09-02T09:50:08.285Z,24.10
2022-09-02T09:52:35.786Z,23.80
2022-09-02T09:55:15.729Z,23.50
2022-09-02T09:57:51.384Z,23.30
2022-09-02T10:00:34.860Z,23.40
2022-09-02T10:03:06.800Z,22.80
2022-09-02T10:05:40.037Z,21.90
2022-09-02T10:08:22.598Z,22.10
2022-09-02T10:11:34.487Z,21.60
2022-09-02T10:14:07.083Z,21.50
2022-09-02T10:17:05.455Z,21.20
2022-09-02T10:19:34.258Z,20.70
2022-09-02T10:22:49.924Z,21.30
2022-09-02T10:25:49.309Z,20.50
2022-09-02T10:28:40.694Z,20.10
2022-09-02T10:31:38.216Z,19.30
2022-09-02T10:34:29.679Z,18.90
2022-09-02T10:37:25.324Z,18.40
2022-09-02T10:40:14.781Z,18.20
2022-09-02T10:43:07.809Z,17.70
2022-09-02T10:45:46.742Z,17.90
2022-09-02T10:48:45.218Z,18.00
2022-09-02T10:51:31.114Z,17.60
2022-09-02T10:54:16.806Z,17.30
2022-09-02T10:56:53.789Z,17.30
2022-09-02T10:59:39.123Z,16.90
2022-09-02T11:02:18.044Z,16.80
2022-09-02T11:05:00.700Z,16.50
2022-09-02T11:07:36.570Z,16.80
2022-09-02T11:10:19.622Z,15.40
2022-09-02T11:12:54.797Z,15.30
2022-09-02T11:15:40.374Z,15.30
2022-09-02T11:18:45.012Z,15.60
2022-09-02T11:21:34.346Z,15.70
2022-09-02T11:24:15.439Z,15.40
2022-09-02T11:27:04.332Z,15.40
2022-09-02T11:29:46.758Z,15.60
2022-09-02T11:32:37.906Z,15.80
2022-09-02T11:35:09.470Z,15.40
2022-09-02T11:37:48.179Z,15.40
2022-09-02T11:40:34.312Z,15.30
2022-09-02T11:43:23.064Z,15.40
2022-09-02T11:45:55.375Z,15.00
2022-09-02T11:48:29.427Z,15.50
2022-09-02T11:50:59.227Z,15.70
2022-09-02T11:53:46.310Z,15.50
2022-09-02T11:56:29.007Z,15.50
2022-09-02T11:58:55.991Z,15.50
2022-09-02T12:01:29.790Z,15.10
2022-09-02T12:04:58.825Z,14.80
2022-09-02T12:07:09.449Z,15.10
2022-09-02T12:09:51.832Z,15.10
2022-09-02T12:12:49.986Z,14.80
2022-09-02T12:15:18.698Z,14.40
2022-09-02T12:17:49.898Z,13.90
2022-09-02T12:20:38.884Z,13.80
2022-09-02T12:23:09.032Z,13.30
2022-09-02T12:25:38.526Z,13.70
2022-09-02T12:28:28.781Z,13.30
2022-09-02T12:30:56.223Z,13.60
2022-09-02T12:33:33.935Z,13.40
2022-09-02T12:36:02.851Z,13.10
2022-09-02T12:38:40.633Z,13.10
2022-09-02T12:41:13.122Z,13.60
2022-09-02T12:43:47.630Z,13.30
2022-09-02T12:46:36.144Z,12.90
2022-09-02T12:49:28.071Z,13.30
2022-09-02T12:52:08.574Z,13.50
2022-09-02T12:54:43.150Z,12.60
2022-09-02T12:57:11.312Z,12.90
2022-09-02T12:59:40.416Z,13.20
2022-09-02T13:02:14.638Z,12.90
2022-09-02T13:05:15.925Z,12.70
2022-09-02T13:08:02.353Z,12.00
2022-09-02T13:11:14.753Z,12.10
2022-09-02T13:13:56.250Z,12.10
2022-09-02T13:16:44.876Z,11.60
2022-09-02T13:19:33.605Z,11.90
2022-09-02T13:22:13.472Z,12.00
2022-09-02T13:24:59.161Z,11.30
2022-09-02T13:27:29.119Z,10.30
2022-09-02T13:30:10.908Z,10.40
2022-09-02T13:32:39.146Z,10.30
2022-09-02T13:35:09.225Z,10.10
2022-09-02T13:37:43.577Z,9.50
2022-09-02T13:40:43.793Z,9.30
2022-09-02T13:43:13.477Z,9.00
2022-09-02T13:45:40.692Z,10.10
2022-09-02T13:48:11.233Z,9.10
2022-09-02T13:50:43.710Z,8.40
2022-09-02T13:53:53.636Z,8.60
2022-09-02T13:56:17.497Z,8.00
2022-09-02T13:58:53.407Z,7.40
2022-09-02T14:01:35.633Z,7.70
2022-09-02T14:04:10.285Z,7.90
2022-09-02T14:06:43.602Z,7.90
2022-09-02T14:09:32.831Z,7.50
2022-09-02T14:12:01.303Z,6.80
2022-09-02T14:14:29.131Z,6.40
2022-09-02T14:17:22.352Z,6.30
2022-09-02T14:19:50.267Z,7.00
2022-09-02T14:22:24.316Z,7.70
2022-09-02T14:24:51.482Z,8.70
2022-09-02T14:27:21.098Z,8.80
2022-09-02T14:29:57.809Z,9.20
2022-09-02T14:32:28.055Z,9.50
2022-09-02T14:35:16.495Z,10.00
2022-09-02T14:37:53.787Z,10.70
2022-09-02T14:40:36.888Z,10.70
2022-09-02T14:43:04.721Z,10.60
2022-09-02T14:45:33.849Z,10.50
2022-09-02T14:48:25.932Z,10.70
2022-09-02T14:51:05.577Z,10.50
2022-09-02T14:53:33.826Z,10.70
2022-09-02T14:56:01.126Z,10.90
2022-09-02T14:58:28.963Z,11.00
2022-09-02T15:00:58.924Z,10.60
2022-09-02T15:03:27.004Z,10.60
2022-09-02T15:05:54.086Z,10.80
2022-09-02T15:08:21.525Z,10.70
2022-09-02T15:10:49.322Z,10.80
2022-09-02T15:13:34.415Z,11.10
2022-09-02T15:16:02.659Z,11.10
2022-09-02T15:18:29.835Z,10.90
2022-09-02T15:20:59.594Z,11.30
2022-09-02T15:23:29.990Z,10.90
2022-09-02T15:25:59.787Z,10.70
2022-09-02T15:28:26.621Z,10.90
2022-09-02T15:31:00.710Z,11.10
2022-09-02T15:33:28.444Z,11.60
2022-09-02T15:35:55.621Z,11.00
2022-09-02T15:38:22.587Z,11.30
2022-09-02T15:40:49.315Z,11.00
2022-09-02T15:43:17.014Z,11.30
2022-09-02T15:45:48.377Z,11.20
2022-09-02T15:48:15.679Z,11.50
2022-09-02T15:50:43.053Z,11.70
2022-09-02T15:53:14.762Z,11.80
2022-09-02T15:55:41.565Z,11.90
2022-09-02T15:58:08.342Z,11.80
2022-09-02T16:00:35.080Z,12.00
2022-09-02T16:03:02.028Z,11.90
2022-09-02T16:05:30.662Z,12.00
2022-09-02T16:07:58.005Z,12.20
2022-09-02T16:10:24.778Z,12.30
2022-09-02T16:12:51.606Z,12.10
2022-09-02T16:15:18.665Z,12.30
2022-09-02T16:17:45.392Z,12.30
2022-09-02T16:20:12.173Z,12.30
2022-09-02T16:22:38.941Z,12.30
2022-09-02T16:25:06.317Z,12.20
2022-09-02T16:27:51.506Z,12.50
2022-09-02T16:30:18.837Z,12.80
2022-09-02T16:32:46.499Z,12.80
2022-09-02T16:35:13.693Z,12.60
2022-09-02T16:37:40.795Z,12.60
2022-09-02T16:40:08.216Z,12.80
2022-09-02T16:42:38.072Z,12.70
2022-09-02T16:45:05.801Z,12.70
2022-09-02T16:47:32.789Z,12.80
2022-09-02T16:49:59.540Z,12.90
2022-09-02T16:52:26.267Z,12.90
2022-09-02T16:54:53.078Z,12.80
2022-09-02T16:57:19.833Z,13.00
2022-09-02T16:59:46.582Z,13.10
2022-09-02T17:02:13.362Z,13.00
2022-09-02T17:04:40.162Z,13.20
2022-09-02T17:07:06.875Z,13.30
2022-09-02T17:09:33.695Z,13.20
2022-09-02T17:12:00.461Z,13.10
2022-09-02T17:14:27.215Z,13.10
2022-09-02T17:16:54.125Z,13.20
2022-09-02T17:19:22.373Z,13.40
2022-09-02T17:21:53.511Z,13.20
2022-09-02T17:24:25.730Z,13.30
2022-09-02T17:26:55.812Z,13.70
2022-09-02T17:29:47.913Z,13.40
2022-09-02T17:32:12.159Z,13.30
2022-09-02T17:34:38.938Z,13.20
2022-09-02T17:37:05.914Z,13.50
2022-09-02T17:39:34.267Z,13.40
2022-09-02T17:42:02.120Z,13.40
2022-09-02T17:44:35.902Z,13.50
2022-09-02T17:47:08.125Z,13.60
2022-09-02T17:49:38.897Z,13.70
2022-09-02T17:52:07.548Z,13.70
2022-09-02T17:54:39.010Z,13.80
2022-09-02T17:57:25.528Z,13.70
2022-09-02T18:00:08.210Z,13.80
2022-09-02T18:03:22.274Z,14.00
2022-09-02T18:05:58.313Z,14.10
2022-09-02T18:08:30.862Z,14.10
2022-09-02T18:11:03.010Z,14.20
2022-09-02T18:13:32.734Z,14.30
2022-09-02T18:16:28.380Z,14.30
2022-09-02T18:19:13.697Z,14.40
2022-09-02T18:21:50.635Z,14.40
2022-09-02T18:24:53.388Z,14.50
2022-09-02T18:27:44.865Z,14.80
2022-09-02T18:30:17.849Z,14.80
2022-09-02T18:32:54.681Z,14.90
2022-09-02T18:35:29.125Z,14.90
2022-09-02T18:38:07.692Z,14.90
2022-09-02T18:40:44.197Z,14.90
2022-09-02T18:43:22.264Z,15.00
2022-09-02T18:45:54.578Z,15.10
2022-09-02T18:48:28.402Z,15.20
2022-09-02T18:51:19.465Z,15.10
2022-09-02T18:53:51.336Z,15.20
2022-09-02T18:56:21.610Z,15.20
2022-09-02T18:59:01.286Z,15.30
2022-09-02T19:01:30.662Z,15.40
2022-09-02T19:04:01.147Z,15.60
2022-09-02T19:06:34.460Z,15.80
2022-09-02T19:09:22.416Z,15.50
2022-09-02T19:11:50.253Z,15.60
2022-09-02T19:14:28.612Z,15.70
2022-09-02T19:16:58.346Z,15.50
2022-09-02T19:19:27.507Z,15.60
2022-09-02T19:21:59.269Z,15.80
2022-09-02T19:24:31.497Z,15.90
2022-09-02T19:27:12.297Z,16.00
2022-09-02T19:29:43.993Z,15.80
2022-09-02T19:32:12.882Z,16.10
2022-09-02T19:34:43.972Z,16.00
2022-09-02T19:37:12.423Z,16.20
2022-09-02T19:39:39.403Z,16.20
2022-09-02T19:42:06.579Z,16.00
2022-09-02T19:44:33.473Z,16.00
2022-09-02T19:49:47.012Z,16.20
2022-09-02T19:52:14.193Z,16.20
2022-09-02T19:54:41.774Z,16.30
2022-09-02T19:57:08.594Z,16.30
2022-09-02T19:59:35.358Z,16.30
2022-09-02T20:02:04.406Z,16.40
2022-09-02T20:04:31.547Z,16.50
2022-09-02T20:06:58.927Z,16.50
2022-09-02T20:09:25.786Z,16.40
2022-09-02T20:11:56.382Z,16.60
2022-09-02T20:14:23.295Z,16.60
2022-09-02T20:16:59.262Z,16.70
2022-09-02T20:19:26.794Z,16.50
2022-09-02T20:21:53.684Z,16.70
2022-09-02T20:24:31.435Z,16.90
2022-09-02T20:27:21.539Z,16.80
2022-09-02T20:30:00.853Z,16.80
2022-09-02T20:32:48.924Z,16.90
2022-09-02T20:35:39.733Z,17.00
2022-09-02T20:38:29.574Z,17.10
2022-09-02T20:41:17.826Z,17.50
2022-09-02T20:44:07.471Z,17.00
2022-09-02T20:47:14.041Z,17.30
2022-09-02T20:50:17.998Z,17.20
2022-09-02T20:53:14.071Z,17.30
2022-09-02T20:55:59.173Z,17.50
2022-09-02T20:58:50.834Z,17.60
2022-09-02T21:01:30.603Z,17.40
2022-09-02T21:04:11.713Z,17.40
2022-09-02T21:06:44.299Z,17.40
2022-09-02T21:09:19.250Z,17.30
2022-09-02T21:11:54.376Z,17.50
2022-09-02T21:14:32.394Z,17.50
2022-09-02T21:17:10.518Z,17.50
2022-09-02T21:19:49.330Z,17.60
2022-09-02T21:22:39.014Z,17.50
2022-09-02T21:25:33.033Z,17.60
2022-09-02T21:28:24.977Z,17.80
2022-09-02T21:31:00.382Z,17.70
2022-09-02T21:33:29.867Z,17.70
2022-09-02T21:35:58.574Z,18.00
2022-09-02T21:38:34.225Z,17.90
2022-09-02T21:41:20.615Z,18.00
2022-09-02T21:43:58.973Z,18.10
2022-09-02T21:47:01.553Z,18.10
2022-09-02T21:49:35.083Z,18.30
2022-09-02T21:52:26.924Z,18.30
2022-09-02T21:54:59.585Z,18.20
2022-09-02T21:57:47.736Z,18.20
2022-09-02T22:00:16.850Z,18.30
2022-09-02T22:02:47.545Z,18.40
2022-09-02T22:05:33.232Z,18.40
2022-09-02T22:08:02.786Z,18.40
2022-09-02T22:10:41.630Z,18.40
2022-09-02T22:13:08.513Z,18.50
2022-09-02T22:15:55.853Z,18.50
2022-09-02T22:18:30.138Z,18.60
2022-09-02T22:21:07.457Z,18.50
2022-09-02T22:23:35.020Z,18.70
2022-09-02T22:26:16.823Z,19.00
2022-09-02T22:28:47.236Z,19.10
2022-09-02T22:31:18.513Z,19.00
2022-09-02T22:33:55.665Z,19.10
2022-09-02T22:36:57.558Z,19.10
2022-09-02T22:39:47.621Z,19.20
2022-09-02T22:42:35.913Z,19.30
2022-09-02T22:45:46.815Z,19.30
2022-09-02T22:48:45.960Z,19.30
2022-09-02T22:52:08.881Z,19.30
2022-09-02T22:54:35.738Z,19.30
2022-09-02T22:57:13.111Z,19.40
2022-09-02T22:59:42.841Z,19.40
2022-09-02T23:02:23.590Z,19.40
2022-09-02T23:04:56.609Z,19.30
2022-09-02T23:07:24.308Z,19.40
2022-09-02T23:09:55.963Z,19.50
2022-09-02T23:12:44.929Z,19.50
2022-09-02T23:15:20.741Z,19.90
2022-09-02T23:17:51.207Z,19.50
2022-09-02T23:20:26.936Z,19.70
2022-09-02T23:23:04.663Z,19.80
2022-09-02T23:26:09.763Z,19.80
2022-09-02T23:28:44.976Z,19.80
2022-09-02T23:31:17.839Z,19.90
2022-09-02T23:34:12.228Z,20.10
2022-09-02T23:36:52.298Z,19.90
2022-09-02T23:39:22.265Z,20.00
2022-09-02T23:41:49.546Z,20.20
2022-09-02T23:44:16.693Z,20.30
2022-09-02T23:47:16.191Z,20.20
2022-09-02T23:50:08.727Z,20.20
2022-09-02T23:52:56.085Z,20.40
2022-09-02T23:55:35.378Z,20.60
2022-09-02T23:58:31.266Z,20.50
